sensor_id;sensor_type;location;lat;lon;timestamp;P1;durP1;ratioP1;P2;durP2;ratioP2
32469;SDS011;18925;48.356;10.864;2022-07-21T00:00:05;6.63;;;4.47;;
32469;SDS011;18925;48.356;10.864;2022-07-21T00:00:37;6.50;;;4.40;;
32469;SDS011;18925;48.356;10.864;2022-07-21T00:01:08;19.70;;;17.35;;
32469;SDS011;18925;48.356;10.864;2022-07-21T00:01:39;220.75;;;166.75;;
32469;SDS011;18925;48.356;10.864;2022-07-21T00:02:10;1242.95;;;503.48;;
32469;SDS011;18925;48.356;10.864;2022-07-21T00:02:41;1500.15;;;639.85;;
32469;SDS011;18925;48.356;10.864;2022-07-21T00:03:11;158.10;;;86.47;;
32469;SDS011;18925;48.356;10.864;2022-07-21T00:03:42;17.10;;;8.63;;
32469;SDS011;18925;48.356;10.864;2022-07-21T00:04:12;8.40;;;4.50;;
32469;SDS011;18925;48.356;10.864;2022-07-21T00:04:45;5.32;;;4.38;;
32469;SDS011;18925;48.356;10.864;2022-07-21T00:05:16;8.60;;;5.18;;
32469;SDS011;18925;48.356;10.864;2022-07-21T00:05:47;7.25;;;4.60;;
32469;SDS011;18925;48.356;10.864;2022-07-21T00:06:17;7.03;;;4.70;;
32469;SDS011;18925;48.356;10.864;2022-07-21T00:06:48;8.45;;;4.63;;
32469;SDS011;18925;48.356;10.864;2022-07-21T00:07:19;7.00;;;4.47;;
32469;SDS011;18925;48.356;10.864;2022-07-21T00:07:50;6.35;;;4.25;;
32469;SDS011;18925;48.356;10.864;2022-07-21T00:08:21;7.43;;;4.65;;
32469;SDS011;18925;48.356;10.864;2022-07-21T00:08:52;8.68;;;5.28;;
32469;SDS011;18925;48.356;10.864;2022-07-21T00:09:23;6.90;;;4.80;;
32469;SDS011;18925;48.356;10.864;2022-07-21T00:09:53;7.40;;;4.85;;
32469;SDS011;18925;48.356;10.864;2022-07-21T00:10:25;5.65;;;4.43;;
32469;SDS011;18925;48.356;10.864;2022-07-21T00:10:56;6.65;;;4.50;;
32469;SDS011;18925;48.356;10.864;2022-07-21T00:11:27;7.43;;;4.47;;
32469;SDS011;18925;48.356;10.864;2022-07-21T00:11:57;11.82;;;5.35;;
32469;SDS011;18925;48.356;10.864;2022-07-21T00:12:28;8.45;;;4.30;;
32469;SDS011;18925;48.356;10.864;2022-07-21T00:12:58;7.72;;;4.75;;
32469;SDS011;18925;48.356;10.864;2022-07-21T00:13:29;8.50;;;4.80;;
32469;SDS011;18925;48.356;10.864;2022-07-21T00:14:00;7.20;;;5.18;;
32469;SDS011;18925;48.356;10.864;2022-07-21T00:14:30;7.35;;;5.00;;
32469;SDS011;18925;48.356;10.864;2022-07-21T00:15:02;7.68;;;5.18;;
32469;SDS011;18925;48.356;10.864;2022-07-21T00:15:33;7.25;;;4.65;;
32469;SDS011;18925;48.356;10.864;2022-07-21T00:16:04;8.30;;;4.90;;
32469;SDS011;18925;48.356;10.864;2022-07-21T00:16:35;5.97;;;4.80;;
32469;SDS011;18925;48.356;10.864;2022-07-21T00:17:07;7.40;;;5.10;;
32469;SDS011;18925;48.356;10.864;2022-07-21T00:17:38;6.70;;;4.72;;
32469;SDS011;18925;48.356;10.864;2022-07-21T00:18:09;6.53;;;5.03;;
32469;SDS011;18925;48.356;10.864;2022-07-21T00:18:39;7.60;;;4.93;;
32469;SDS011;18925;48.356;10.864;2022-07-21T00:19:10;7.00;;;5.00;;
32469;SDS011;18925;48.356;10.864;2022-07-21T00:19:41;10.55;;;5.13;;
32469;SDS011;18925;48.356;10.864;2022-07-21T00:20:12;6.78;;;5.07;;
32469;SDS011;18925;48.356;10.864;2022-07-21T00:20:44;6.63;;;4.65;;
32469;SDS011;18925;48.356;10.864;2022-07-21T00:21:14;7.53;;;5.32;;
32469;SDS011;18925;48.356;10.864;2022-07-21T00:21:45;9.50;;;4.90;;
32469;SDS011;18925;48.356;10.864;2022-07-21T00:22:15;9.40;;;4.90;;
32469;SDS011;18925;48.356;10.864;2022-07-21T00:22:46;6.25;;;5.03;;
32469;SDS011;18925;48.356;10.864;2022-07-21T00:23:17;5.93;;;5.07;;
32469;SDS011;18925;48.356;10.864;2022-07-21T00:23:48;7.47;;;5.07;;
32469;SDS011;18925;48.356;10.864;2022-07-21T00:24:18;8.52;;;5.13;;
32469;SDS011;18925;48.356;10.864;2022-07-21T00:24:49;7.95;;;5.38;;
32469;SDS011;18925;48.356;10.864;2022-07-21T00:25:19;7.15;;;5.03;;
32469;SDS011;18925;48.356;10.864;2022-07-21T00:25:50;6.90;;;5.72;;
32469;SDS011;18925;48.356;10.864;2022-07-21T00:26:21;7.70;;;5.82;;
32469;SDS011;18925;48.356;10.864;2022-07-21T00:26:52;6.78;;;6.07;;
32469;SDS011;18925;48.356;10.864;2022-07-21T00:27:23;6.40;;;5.13;;
32469;SDS011;18925;48.356;10.864;2022-07-21T00:27:55;5.90;;;5.10;;
32469;SDS011;18925;48.356;10.864;2022-07-21T00:28:25;7.57;;;5.70;;
32469;SDS011;18925;48.356;10.864;2022-07-21T00:28:56;8.00;;;5.00;;
32469;SDS011;18925;48.356;10.864;2022-07-21T00:29:26;6.45;;;4.50;;
32469;SDS011;18925;48.356;10.864;2022-07-21T00:29:57;7.55;;;4.95;;
32469;SDS011;18925;48.356;10.864;2022-07-21T00:30:28;7.82;;;5.22;;
32469;SDS011;18925;48.356;10.864;2022-07-21T00:30:59;12.35;;;5.13;;
32469;SDS011;18925;48.356;10.864;2022-07-21T00:31:29;6.57;;;4.97;;
32469;SDS011;18925;48.356;10.864;2022-07-21T00:32:00;8.60;;;5.82;;
32469;SDS011;18925;48.356;10.864;2022-07-21T00:32:33;7.78;;;4.63;;
32469;SDS011;18925;48.356;10.864;2022-07-21T00:33:04;9.02;;;5.53;;
32469;SDS011;18925;48.356;10.864;2022-07-21T00:33:35;5.50;;;4.40;;
32469;SDS011;18925;48.356;10.864;2022-07-21T00:34:05;5.80;;;4.88;;
32469;SDS011;18925;48.356;10.864;2022-07-21T00:34:36;6.22;;;5.28;;
32469;SDS011;18925;48.356;10.864;2022-07-21T00:35:07;5.47;;;4.72;;
32469;SDS011;18925;48.356;10.864;2022-07-21T00:35:39;7.57;;;4.43;;
32469;SDS011;18925;48.356;10.864;2022-07-21T00:36:10;5.75;;;4.75;;
32469;SDS011;18925;48.356;10.864;2022-07-21T00:36:40;6.70;;;5.00;;
32469;SDS011;18925;48.356;10.864;2022-07-21T00:37:11;10.15;;;4.90;;
32469;SDS011;18925;48.356;10.864;2022-07-21T00:37:42;8.07;;;5.22;;
32469;SDS011;18925;48.356;10.864;2022-07-21T00:38:13;7.30;;;4.78;;
32469;SDS011;18925;48.356;10.864;2022-07-21T00:38:43;7.32;;;5.20;;
32469;SDS011;18925;48.356;10.864;2022-07-21T00:39:14;6.43;;;5.20;;
32469;SDS011;18925;48.356;10.864;2022-07-21T00:39:44;5.93;;;5.00;;
32469;SDS011;18925;48.356;10.864;2022-07-21T00:40:15;6.88;;;5.20;;
32469;SDS011;18925;48.356;10.864;2022-07-21T00:40:46;7.07;;;5.07;;
32469;SDS011;18925;48.356;10.864;2022-07-21T00:41:16;8.65;;;5.40;;
32469;SDS011;18925;48.356;10.864;2022-07-21T00:41:47;6.45;;;5.25;;
32469;SDS011;18925;48.356;10.864;2022-07-21T00:42:25;7.68;;;4.72;;
32469;SDS011;18925;48.356;10.864;2022-07-21T00:42:57;6.38;;;5.28;;
32469;SDS011;18925;48.356;10.864;2022-07-21T00:43:28;8.23;;;5.30;;
32469;SDS011;18925;48.356;10.864;2022-07-21T00:43:59;8.07;;;5.50;;
32469;SDS011;18925;48.356;10.864;2022-07-21T00:44:30;6.28;;;4.80;;
32469;SDS011;18925;48.356;10.864;2022-07-21T00:45:01;6.55;;;4.82;;
32469;SDS011;18925;48.356;10.864;2022-07-21T00:45:34;10.18;;;5.38;;
32469;SDS011;18925;48.356;10.864;2022-07-21T00:46:04;6.07;;;4.57;;
32469;SDS011;18925;48.356;10.864;2022-07-21T00:46:35;8.10;;;4.75;;
32469;SDS011;18925;48.356;10.864;2022-07-21T00:47:06;6.78;;;4.70;;
32469;SDS011;18925;48.356;10.864;2022-07-21T00:47:36;6.13;;;5.13;;
32469;SDS011;18925;48.356;10.864;2022-07-21T00:48:07;6.60;;;4.80;;
32469;SDS011;18925;48.356;10.864;2022-07-21T00:48:38;6.07;;;4.95;;
32469;SDS011;18925;48.356;10.864;2022-07-21T00:49:09;7.72;;;4.75;;
32469;SDS011;18925;48.356;10.864;2022-07-21T00:49:39;8.68;;;5.38;;
32469;SDS011;18925;48.356;10.864;2022-07-21T00:50:12;8.23;;;5.63;;
32469;SDS011;18925;48.356;10.864;2022-07-21T00:50:44;6.00;;;4.40;;
32469;SDS011;18925;48.356;10.864;2022-07-21T00:51:15;8.15;;;5.43;;
32469;SDS011;18925;48.356;10.864;2022-07-21T00:51:46;6.20;;;5.22;;
32469;SDS011;18925;48.356;10.864;2022-07-21T00:52:18;7.97;;;4.90;;
32469;SDS011;18925;48.356;10.864;2022-07-21T00:52:49;8.57;;;5.50;;
32469;SDS011;18925;48.356;10.864;2022-07-21T00:53:20;7.63;;;5.50;;
32469;SDS011;18925;48.356;10.864;2022-07-21T00:53:51;7.53;;;6.20;;
32469;SDS011;18925;48.356;10.864;2022-07-21T00:54:22;8.43;;;5.00;;
32469;SDS011;18925;48.356;10.864;2022-07-21T00:54:52;8.57;;;5.43;;
32469;SDS011;18925;48.356;10.864;2022-07-21T00:55:23;9.98;;;5.00;;
32469;SDS011;18925;48.356;10.864;2022-07-21T00:55:54;10.05;;;5.57;;
32469;SDS011;18925;48.356;10.864;2022-07-21T00:56:25;7.80;;;5.90;;
32469;SDS011;18925;48.356;10.864;2022-07-21T00:56:55;9.95;;;5.57;;
32469;SDS011;18925;48.356;10.864;2022-07-21T00:57:26;6.47;;;5.80;;
32469;SDS011;18925;48.356;10.864;2022-07-21T00:57:57;8.70;;;5.85;;
32469;SDS011;18925;48.356;10.864;2022-07-21T00:58:27;7.97;;;5.75;;
32469;SDS011;18925;48.356;10.864;2022-07-21T00:58:58;7.75;;;5.50;;
32469;SDS011;18925;48.356;10.864;2022-07-21T00:59:29;6.18;;;5.35;;
32469;SDS011;18925;48.356;10.864;2022-07-21T01:00:01;9.73;;;6.40;;
32469;SDS011;18925;48.356;10.864;2022-07-21T01:00:36;7.85;;;5.80;;
32469;SDS011;18925;48.356;10.864;2022-07-21T01:01:07;9.07;;;5.78;;
32469;SDS011;18925;48.356;10.864;2022-07-21T01:01:38;9.60;;;5.47;;
32469;SDS011;18925;48.356;10.864;2022-07-21T01:02:09;9.77;;;6.20;;
32469;SDS011;18925;48.356;10.864;2022-07-21T01:02:40;7.57;;;5.90;;
32469;SDS011;18925;48.356;10.864;2022-07-21T01:03:11;8.82;;;6.28;;
32469;SDS011;18925;48.356;10.864;2022-07-21T01:03:41;6.35;;;5.63;;
32469;SDS011;18925;48.356;10.864;2022-07-21T01:04:12;8.68;;;5.65;;
32469;SDS011;18925;48.356;10.864;2022-07-21T01:04:43;7.82;;;5.80;;
32469;SDS011;18925;48.356;10.864;2022-07-21T01:05:14;8.10;;;6.10;;
32469;SDS011;18925;48.356;10.864;2022-07-21T01:05:45;7.15;;;6.20;;
32469;SDS011;18925;48.356;10.864;2022-07-21T01:06:15;9.13;;;5.95;;
32469;SDS011;18925;48.356;10.864;2022-07-21T01:06:46;7.32;;;6.15;;
32469;SDS011;18925;48.356;10.864;2022-07-21T01:07:18;8.68;;;5.78;;
32469;SDS011;18925;48.356;10.864;2022-07-21T01:07:51;7.93;;;5.63;;
32469;SDS011;18925;48.356;10.864;2022-07-21T01:08:23;9.27;;;5.75;;
32469;SDS011;18925;48.356;10.864;2022-07-21T01:08:54;7.57;;;5.93;;
32469;SDS011;18925;48.356;10.864;2022-07-21T01:09:24;9.20;;;5.90;;
32469;SDS011;18925;48.356;10.864;2022-07-21T01:09:55;9.25;;;5.63;;
32469;SDS011;18925;48.356;10.864;2022-07-21T01:10:26;8.32;;;5.90;;
32469;SDS011;18925;48.356;10.864;2022-07-21T01:10:57;8.05;;;6.15;;
32469;SDS011;18925;48.356;10.864;2022-07-21T01:11:27;9.95;;;5.60;;
32469;SDS011;18925;48.356;10.864;2022-07-21T01:11:58;7.75;;;6.45;;
32469;SDS011;18925;48.356;10.864;2022-07-21T01:12:30;7.97;;;5.80;;
32469;SDS011;18925;48.356;10.864;2022-07-21T01:13:01;6.60;;;5.90;;
32469;SDS011;18925;48.356;10.864;2022-07-21T01:13:32;9.95;;;5.95;;
32469;SDS011;18925;48.356;10.864;2022-07-21T01:14:03;6.88;;;5.97;;
32469;SDS011;18925;48.356;10.864;2022-07-21T01:14:33;8.65;;;6.10;;
32469;SDS011;18925;48.356;10.864;2022-07-21T01:15:05;8.98;;;6.18;;
32469;SDS011;18925;48.356;10.864;2022-07-21T01:15:37;8.68;;;6.15;;
32469;SDS011;18925;48.356;10.864;2022-07-21T01:16:08;12.70;;;6.30;;
32469;SDS011;18925;48.356;10.864;2022-07-21T01:16:40;9.90;;;6.63;;
32469;SDS011;18925;48.356;10.864;2022-07-21T01:17:11;9.13;;;6.30;;
32469;SDS011;18925;48.356;10.864;2022-07-21T01:17:41;8.40;;;6.88;;
32469;SDS011;18925;48.356;10.864;2022-07-21T01:18:12;8.57;;;6.00;;
32469;SDS011;18925;48.356;10.864;2022-07-21T01:18:44;7.07;;;6.00;;
32469;SDS011;18925;48.356;10.864;2022-07-21T01:19:14;9.82;;;6.22;;
32469;SDS011;18925;48.356;10.864;2022-07-21T01:19:45;8.65;;;6.45;;
32469;SDS011;18925;48.356;10.864;2022-07-21T01:20:17;8.82;;;6.20;;
32469;SDS011;18925;48.356;10.864;2022-07-21T01:20:51;6.65;;;5.95;;
32469;SDS011;18925;48.356;10.864;2022-07-21T01:21:28;9.00;;;5.70;;
32469;SDS011;18925;48.356;10.864;2022-07-21T01:22:01;9.88;;;5.85;;
32469;SDS011;18925;48.356;10.864;2022-07-21T01:22:35;6.20;;;5.60;;
32469;SDS011;18925;48.356;10.864;2022-07-21T01:23:07;8.50;;;6.32;;
32469;SDS011;18925;48.356;10.864;2022-07-21T01:23:38;11.50;;;6.43;;
32469;SDS011;18925;48.356;10.864;2022-07-21T01:24:09;7.78;;;6.05;;
32469;SDS011;18925;48.356;10.864;2022-07-21T01:24:41;7.78;;;6.32;;
32469;SDS011;18925;48.356;10.864;2022-07-21T01:25:12;8.07;;;6.20;;
32469;SDS011;18925;48.356;10.864;2022-07-21T01:25:46;8.93;;;6.32;;
32469;SDS011;18925;48.356;10.864;2022-07-21T01:26:18;7.85;;;6.03;;
32469;SDS011;18925;48.356;10.864;2022-07-21T01:26:50;9.05;;;6.47;;
32469;SDS011;18925;48.356;10.864;2022-07-21T01:27:24;9.27;;;6.50;;
32469;SDS011;18925;48.356;10.864;2022-07-21T01:27:56;8.07;;;6.68;;
32469;SDS011;18925;48.356;10.864;2022-07-21T01:28:27;8.73;;;6.50;;
32469;SDS011;18925;48.356;10.864;2022-07-21T01:28:57;7.18;;;6.28;;
32469;SDS011;18925;48.356;10.864;2022-07-21T01:29:28;7.93;;;6.70;;
32469;SDS011;18925;48.356;10.864;2022-07-21T01:29:59;8.85;;;6.70;;
32469;SDS011;18925;48.356;10.864;2022-07-21T01:30:30;8.23;;;5.88;;
32469;SDS011;18925;48.356;10.864;2022-07-21T01:31:00;8.80;;;6.43;;
32469;SDS011;18925;48.356;10.864;2022-07-21T01:31:31;10.48;;;6.65;;
32469;SDS011;18925;48.356;10.864;2022-07-21T01:32:02;9.70;;;6.55;;
32469;SDS011;18925;48.356;10.864;2022-07-21T01:32:34;7.38;;;6.40;;
32469;SDS011;18925;48.356;10.864;2022-07-21T01:33:06;9.75;;;6.97;;
32469;SDS011;18925;48.356;10.864;2022-07-21T01:33:36;11.15;;;7.10;;
32469;SDS011;18925;48.356;10.864;2022-07-21T01:34:07;7.78;;;6.18;;
32469;SDS011;18925;48.356;10.864;2022-07-21T01:34:38;9.07;;;7.15;;
32469;SDS011;18925;48.356;10.864;2022-07-21T01:35:11;11.82;;;7.10;;
32469;SDS011;18925;48.356;10.864;2022-07-21T01:35:43;11.43;;;6.57;;
32469;SDS011;18925;48.356;10.864;2022-07-21T01:36:14;9.27;;;6.70;;
32469;SDS011;18925;48.356;10.864;2022-07-21T01:36:45;8.52;;;6.05;;
32469;SDS011;18925;48.356;10.864;2022-07-21T01:37:20;10.98;;;6.32;;
32469;SDS011;18925;48.356;10.864;2022-07-21T01:38:28;8.73;;;6.85;;
32469;SDS011;18925;48.356;10.864;2022-07-21T01:39:17;8.93;;;7.10;;
32469;SDS011;18925;48.356;10.864;2022-07-21T01:40:07;9.45;;;7.30;;
32469;SDS011;18925;48.356;10.864;2022-07-21T01:40:59;10.10;;;7.03;;
32469;SDS011;18925;48.356;10.864;2022-07-21T01:41:49;10.10;;;7.10;;
32469;SDS011;18925;48.356;10.864;2022-07-21T01:42:19;13.82;;;7.40;;
32469;SDS011;18925;48.356;10.864;2022-07-21T01:42:50;8.57;;;6.95;;
32469;SDS011;18925;48.356;10.864;2022-07-21T01:43:22;9.68;;;6.97;;
32469;SDS011;18925;48.356;10.864;2022-07-21T01:43:52;8.52;;;7.43;;
32469;SDS011;18925;48.356;10.864;2022-07-21T01:44:23;9.82;;;7.32;;
32469;SDS011;18925;48.356;10.864;2022-07-21T01:44:54;10.43;;;7.45;;
32469;SDS011;18925;48.356;10.864;2022-07-21T01:45:27;10.57;;;7.10;;
32469;SDS011;18925;48.356;10.864;2022-07-21T01:45:58;9.55;;;6.90;;
32469;SDS011;18925;48.356;10.864;2022-07-21T01:46:31;8.15;;;6.72;;
32469;SDS011;18925;48.356;10.864;2022-07-21T01:47:03;7.68;;;6.78;;
32469;SDS011;18925;48.356;10.864;2022-07-21T01:47:34;12.40;;;7.03;;
32469;SDS011;18925;48.356;10.864;2022-07-21T01:48:05;12.60;;;7.25;;
32469;SDS011;18925;48.356;10.864;2022-07-21T01:48:36;12.70;;;7.75;;
32469;SDS011;18925;48.356;10.864;2022-07-21T01:49:12;10.27;;;7.22;;
32469;SDS011;18925;48.356;10.864;2022-07-21T01:49:44;8.18;;;6.88;;
32469;SDS011;18925;48.356;10.864;2022-07-21T01:50:15;9.38;;;7.30;;
32469;SDS011;18925;48.356;10.864;2022-07-21T01:50:46;8.82;;;6.65;;
32469;SDS011;18925;48.356;10.864;2022-07-21T01:51:17;9.80;;;7.07;;
32469;SDS011;18925;48.356;10.864;2022-07-21T01:51:48;10.90;;;7.30;;
32469;SDS011;18925;48.356;10.864;2022-07-21T01:52:19;9.25;;;7.38;;
32469;SDS011;18925;48.356;10.864;2022-07-21T01:52:49;10.85;;;7.40;;
32469;SDS011;18925;48.356;10.864;2022-07-21T01:53:20;11.00;;;6.75;;
32469;SDS011;18925;48.356;10.864;2022-07-21T01:53:51;10.18;;;7.03;;
32469;SDS011;18925;48.356;10.864;2022-07-21T01:54:23;8.25;;;6.85;;
32469;SDS011;18925;48.356;10.864;2022-07-21T01:54:53;9.98;;;6.88;;
32469;SDS011;18925;48.356;10.864;2022-07-21T01:55:24;7.18;;;5.90;;
32469;SDS011;18925;48.356;10.864;2022-07-21T01:55:56;7.70;;;6.13;;
32469;SDS011;18925;48.356;10.864;2022-07-21T01:56:26;8.85;;;7.20;;
32469;SDS011;18925;48.356;10.864;2022-07-21T01:56:57;8.32;;;6.95;;
32469;SDS011;18925;48.356;10.864;2022-07-21T01:57:28;10.77;;;7.10;;
32469;SDS011;18925;48.356;10.864;2022-07-21T01:58:00;8.48;;;6.68;;
32469;SDS011;18925;48.356;10.864;2022-07-21T01:58:31;11.93;;;6.97;;
32469;SDS011;18925;48.356;10.864;2022-07-21T01:59:03;9.18;;;6.80;;
32469;SDS011;18925;48.356;10.864;2022-07-21T01:59:34;8.32;;;6.20;;
32469;SDS011;18925;48.356;10.864;2022-07-21T02:00:05;9.82;;;7.38;;
32469;SDS011;18925;48.356;10.864;2022-07-21T02:00:36;8.73;;;7.03;;
32469;SDS011;18925;48.356;10.864;2022-07-21T02:01:07;7.50;;;6.68;;
32469;SDS011;18925;48.356;10.864;2022-07-21T02:01:37;9.70;;;7.28;;
32469;SDS011;18925;48.356;10.864;2022-07-21T02:02:08;8.73;;;7.35;;
32469;SDS011;18925;48.356;10.864;2022-07-21T02:02:39;11.00;;;6.95;;
32469;SDS011;18925;48.356;10.864;2022-07-21T02:03:10;10.10;;;7.43;;
32469;SDS011;18925;48.356;10.864;2022-07-21T02:03:40;9.80;;;7.13;;
32469;SDS011;18925;48.356;10.864;2022-07-21T02:04:11;8.40;;;6.70;;
32469;SDS011;18925;48.356;10.864;2022-07-21T02:04:42;12.65;;;7.13;;
32469;SDS011;18925;48.356;10.864;2022-07-21T02:05:12;14.45;;;7.45;;
32469;SDS011;18925;48.356;10.864;2022-07-21T02:05:43;9.95;;;7.97;;
32469;SDS011;18925;48.356;10.864;2022-07-21T02:06:14;10.82;;;7.88;;
32469;SDS011;18925;48.356;10.864;2022-07-21T02:06:45;10.55;;;7.80;;
32469;SDS011;18925;48.356;10.864;2022-07-21T02:07:15;9.32;;;7.75;;
32469;SDS011;18925;48.356;10.864;2022-07-21T02:07:46;7.85;;;6.70;;
32469;SDS011;18925;48.356;10.864;2022-07-21T02:08:17;9.32;;;7.15;;
32469;SDS011;18925;48.356;10.864;2022-07-21T02:08:48;9.73;;;7.35;;
32469;SDS011;18925;48.356;10.864;2022-07-21T02:09:19;10.13;;;7.50;;
32469;SDS011;18925;48.356;10.864;2022-07-21T02:09:49;8.95;;;7.22;;
32469;SDS011;18925;48.356;10.864;2022-07-21T02:10:20;11.18;;;7.28;;
32469;SDS011;18925;48.356;10.864;2022-07-21T02:10:51;10.85;;;7.90;;
32469;SDS011;18925;48.356;10.864;2022-07-21T02:11:22;10.75;;;7.10;;
32469;SDS011;18925;48.356;10.864;2022-07-21T02:11:52;9.23;;;7.55;;
32469;SDS011;18925;48.356;10.864;2022-07-21T02:12:23;11.98;;;7.18;;
32469;SDS011;18925;48.356;10.864;2022-07-21T02:12:54;10.80;;;7.78;;
32469;SDS011;18925;48.356;10.864;2022-07-21T02:13:24;10.93;;;7.90;;
32469;SDS011;18925;48.356;10.864;2022-07-21T02:13:55;12.10;;;7.32;;
32469;SDS011;18925;48.356;10.864;2022-07-21T02:14:26;10.27;;;7.88;;
32469;SDS011;18925;48.356;10.864;2022-07-21T02:14:57;10.85;;;7.97;;
32469;SDS011;18925;48.356;10.864;2022-07-21T02:15:27;9.55;;;7.97;;
32469;SDS011;18925;48.356;10.864;2022-07-21T02:15:58;13.18;;;8.00;;
32469;SDS011;18925;48.356;10.864;2022-07-21T02:16:29;11.63;;;8.73;;
32469;SDS011;18925;48.356;10.864;2022-07-21T02:16:59;8.95;;;7.47;;
32469;SDS011;18925;48.356;10.864;2022-07-21T02:17:30;12.68;;;8.25;;
32469;SDS011;18925;48.356;10.864;2022-07-21T02:18:01;10.82;;;8.55;;
32469;SDS011;18925;48.356;10.864;2022-07-21T02:18:31;11.60;;;8.45;;
32469;SDS011;18925;48.356;10.864;2022-07-21T02:19:02;13.45;;;9.57;;
32469;SDS011;18925;48.356;10.864;2022-07-21T02:19:33;16.65;;;8.80;;
32469;SDS011;18925;48.356;10.864;2022-07-21T02:20:04;10.57;;;8.40;;
32469;SDS011;18925;48.356;10.864;2022-07-21T02:20:35;12.40;;;9.25;;
32469;SDS011;18925;48.356;10.864;2022-07-21T02:21:06;14.23;;;10.02;;
32469;SDS011;18925;48.356;10.864;2022-07-21T02:21:37;14.60;;;10.13;;
32469;SDS011;18925;48.356;10.864;2022-07-21T02:22:08;12.75;;;9.90;;
32469;SDS011;18925;48.356;10.864;2022-07-21T02:22:38;14.52;;;10.60;;
32469;SDS011;18925;48.356;10.864;2022-07-21T02:23:09;14.05;;;10.13;;
32469;SDS011;18925;48.356;10.864;2022-07-21T02:23:40;13.80;;;10.32;;
32469;SDS011;18925;48.356;10.864;2022-07-21T02:24:10;12.10;;;9.70;;
32469;SDS011;18925;48.356;10.864;2022-07-21T02:24:41;11.20;;;10.00;;
32469;SDS011;18925;48.356;10.864;2022-07-21T02:25:12;12.40;;;10.90;;
32469;SDS011;18925;48.356;10.864;2022-07-21T02:25:43;14.57;;;11.13;;
32469;SDS011;18925;48.356;10.864;2022-07-21T02:26:14;15.55;;;11.02;;
32469;SDS011;18925;48.356;10.864;2022-07-21T02:26:44;14.52;;;10.77;;
32469;SDS011;18925;48.356;10.864;2022-07-21T02:27:15;13.10;;;10.52;;
32469;SDS011;18925;48.356;10.864;2022-07-21T02:27:46;14.68;;;11.82;;
32469;SDS011;18925;48.356;10.864;2022-07-21T02:28:17;14.35;;;11.60;;
32469;SDS011;18925;48.356;10.864;2022-07-21T02:28:48;13.10;;;10.93;;
32469;SDS011;18925;48.356;10.864;2022-07-21T02:29:18;13.02;;;11.07;;
32469;SDS011;18925;48.356;10.864;2022-07-21T02:29:49;13.77;;;11.43;;
32469;SDS011;18925;48.356;10.864;2022-07-21T02:30:20;21.38;;;12.13;;
32469;SDS011;18925;48.356;10.864;2022-07-21T02:30:50;16.58;;;11.80;;
32469;SDS011;18925;48.356;10.864;2022-07-21T02:31:21;12.88;;;11.25;;
32469;SDS011;18925;48.356;10.864;2022-07-21T02:31:52;14.32;;;11.35;;
32469;SDS011;18925;48.356;10.864;2022-07-21T02:32:23;16.80;;;11.20;;
32469;SDS011;18925;48.356;10.864;2022-07-21T02:32:53;15.80;;;11.43;;
32469;SDS011;18925;48.356;10.864;2022-07-21T02:33:24;14.90;;;11.23;;
32469;SDS011;18925;48.356;10.864;2022-07-21T02:33:55;14.68;;;11.07;;
32469;SDS011;18925;48.356;10.864;2022-07-21T02:34:25;12.65;;;11.15;;
32469;SDS011;18925;48.356;10.864;2022-07-21T02:34:56;13.98;;;11.05;;
32469;SDS011;18925;48.356;10.864;2022-07-21T02:35:26;13.85;;;11.65;;
32469;SDS011;18925;48.356;10.864;2022-07-21T02:35:57;18.98;;;12.60;;
32469;SDS011;18925;48.356;10.864;2022-07-21T02:36:28;13.60;;;11.65;;
32469;SDS011;18925;48.356;10.864;2022-07-21T02:36:58;17.15;;;11.90;;
32469;SDS011;18925;48.356;10.864;2022-07-21T02:37:29;15.50;;;11.15;;
32469;SDS011;18925;48.356;10.864;2022-07-21T02:38:00;15.07;;;10.85;;
32469;SDS011;18925;48.356;10.864;2022-07-21T02:38:31;14.70;;;11.15;;
32469;SDS011;18925;48.356;10.864;2022-07-21T02:39:01;14.50;;;11.40;;
32469;SDS011;18925;48.356;10.864;2022-07-21T02:39:32;18.02;;;11.20;;
32469;SDS011;18925;48.356;10.864;2022-07-21T02:40:03;15.75;;;12.85;;
32469;SDS011;18925;48.356;10.864;2022-07-21T02:40:34;13.60;;;12.15;;
32469;SDS011;18925;48.356;10.864;2022-07-21T02:41:05;17.80;;;11.55;;
32469;SDS011;18925;48.356;10.864;2022-07-21T02:41:35;13.63;;;11.82;;
32469;SDS011;18925;48.356;10.864;2022-07-21T02:42:06;17.73;;;12.73;;
32469;SDS011;18925;48.356;10.864;2022-07-21T02:42:37;16.83;;;13.32;;
32469;SDS011;18925;48.356;10.864;2022-07-21T02:43:08;14.25;;;12.75;;
32469;SDS011;18925;48.356;10.864;2022-07-21T02:43:38;17.45;;;12.45;;
32469;SDS011;18925;48.356;10.864;2022-07-21T02:44:09;16.88;;;12.75;;
32469;SDS011;18925;48.356;10.864;2022-07-21T02:44:39;17.00;;;14.00;;
32469;SDS011;18925;48.356;10.864;2022-07-21T02:45:10;17.75;;;13.70;;
32469;SDS011;18925;48.356;10.864;2022-07-21T02:45:41;15.95;;;12.88;;
32469;SDS011;18925;48.356;10.864;2022-07-21T02:46:13;14.13;;;12.68;;
32469;SDS011;18925;48.356;10.864;2022-07-21T02:46:44;18.77;;;14.10;;
32469;SDS011;18925;48.356;10.864;2022-07-21T02:47:15;16.60;;;13.32;;
32469;SDS011;18925;48.356;10.864;2022-07-21T02:48:22;16.23;;;13.57;;
32469;SDS011;18925;48.356;10.864;2022-07-21T02:48:52;14.55;;;13.05;;
32469;SDS011;18925;48.356;10.864;2022-07-21T02:49:23;15.82;;;13.25;;
32469;SDS011;18925;48.356;10.864;2022-07-21T02:49:53;14.63;;;11.75;;
32469;SDS011;18925;48.356;10.864;2022-07-21T02:50:26;14.55;;;12.43;;
32469;SDS011;18925;48.356;10.864;2022-07-21T02:50:58;21.33;;;13.82;;
32469;SDS011;18925;48.356;10.864;2022-07-21T02:51:29;19.60;;;13.90;;
32469;SDS011;18925;48.356;10.864;2022-07-21T02:51:59;19.30;;;13.55;;
32469;SDS011;18925;48.356;10.864;2022-07-21T02:52:30;15.55;;;13.23;;
32469;SDS011;18925;48.356;10.864;2022-07-21T02:53:02;16.45;;;14.13;;
32469;SDS011;18925;48.356;10.864;2022-07-21T02:53:34;15.60;;;13.82;;
32469;SDS011;18925;48.356;10.864;2022-07-21T02:54:05;21.65;;;14.77;;
32469;SDS011;18925;48.356;10.864;2022-07-21T02:54:36;19.05;;;15.13;;
32469;SDS011;18925;48.356;10.864;2022-07-21T02:55:07;18.30;;;15.32;;
32469;SDS011;18925;48.356;10.864;2022-07-21T02:55:38;19.95;;;14.65;;
32469;SDS011;18925;48.356;10.864;2022-07-21T02:56:09;18.92;;;15.38;;
32469;SDS011;18925;48.356;10.864;2022-07-21T02:56:40;19.17;;;15.27;;
32469;SDS011;18925;48.356;10.864;2022-07-21T02:57:10;20.60;;;14.88;;
32469;SDS011;18925;48.356;10.864;2022-07-21T02:57:41;17.42;;;14.80;;
32469;SDS011;18925;48.356;10.864;2022-07-21T02:58:13;16.88;;;15.07;;
32469;SDS011;18925;48.356;10.864;2022-07-21T02:58:49;22.90;;;14.65;;
32469;SDS011;18925;48.356;10.864;2022-07-21T02:59:20;19.23;;;15.05;;
32469;SDS011;18925;48.356;10.864;2022-07-21T02:59:50;21.10;;;18.90;;
32469;SDS011;18925;48.356;10.864;2022-07-21T03:00:21;22.70;;;16.02;;
32469;SDS011;18925;48.356;10.864;2022-07-21T03:00:53;20.67;;;16.27;;
32469;SDS011;18925;48.356;10.864;2022-07-21T03:01:29;19.05;;;16.15;;
32469;SDS011;18925;48.356;10.864;2022-07-21T03:02:00;19.50;;;15.88;;
32469;SDS011;18925;48.356;10.864;2022-07-21T03:02:30;19.98;;;16.85;;
32469;SDS011;18925;48.356;10.864;2022-07-21T03:03:01;20.13;;;17.60;;
32469;SDS011;18925;48.356;10.864;2022-07-21T03:03:34;19.10;;;16.45;;
32469;SDS011;18925;48.356;10.864;2022-07-21T03:04:06;26.00;;;18.00;;
32469;SDS011;18925;48.356;10.864;2022-07-21T03:04:37;19.75;;;17.10;;
32469;SDS011;18925;48.356;10.864;2022-07-21T03:05:07;22.33;;;16.27;;